Time;durP1;ratioP1;P1;durP2;ratioP2;P2;SDS_P1;SDS_P2;PMS_P1;PMS_P2;Temp;Humidity;BMP_temperature;BMP_pressure;BME280_temperature;BME280_humidity;BME280_pressure;Samples;Min_cycle;Max_cycle;Signal;HPM_P1;HPM_P2
2021/11/29 00:01:25;;;;;;;;;22.00;17.25;;;;;;;;5033496;28;46617;-76
2021/11/29 00:03:51;;;;;;;;;22.25;17.75;;;;;;;;5033622;28;45327;-74
2021/11/29 00:06:17;;;;;;;;;15.75;15.75;;;;;;;;5034639;28;45447;-75
2021/11/29 00:08:43;;;;;;;;;20.00;20.00;;;;;;;;5034058;28;45482;-74
2021/11/29 00:11:08;;;;;;;;;17.00;15.50;;;;;;;;5033626;28;45721;-76
2021/11/29 00:13:34;;;;;;;;;17.50;16.50;;;;;;;;5033737;28;45391;-75
2021/11/29 00:15:59;;;;;;;;;19.50;19.50;;;;;;;;5037001;28;45407;-75
2021/11/29 00:18:25;;;;;;;;;20.75;17.50;;;;;;;;5037905;28;45694;-75
2021/11/29 00:20:50;;;;;;;;;15.75;15.00;;;;;;;;5035625;28;47044;-75
2021/11/29 00:23:15;;;;;;;;;18.25;16.50;;;;;;;;5037013;28;45526;-75
2021/11/29 00:25:42;;;;;;;;;16.50;15.75;;;;;;;;5037101;28;49553;-75
2021/11/29 00:28:09;;;;;;;;;19.50;18.00;;;;;;;;5037177;28;45399;-75
2021/11/29 00:30:34;;;;;;;;;21.75;17.25;;;;;;;;5036804;28;47280;-75
2021/11/29 00:32:59;;;;;;;;;17.75;17.75;;;;;;;;5037391;28;45422;-74
2021/11/29 00:35:25;;;;;;;;;20.75;16.50;;;;;;;;5036945;28;45346;-75
2021/11/29 00:37:50;;;;;;;;;17.50;16.00;;;;;;;;5036958;28;45600;-75
2021/11/29 00:40:15;;;;;;;;;19.00;16.75;;;;;;;;5036769;28;46130;-75
2021/11/29 00:42:40;;;;;;;;;17.25;16.50;;;;;;;;5037058;28;45585;-75
2021/11/29 00:45:07;;;;;;;;;19.75;18.50;;;;;;;;5035520;28;45446;-76
2021/11/29 00:47:32;;;;;;;;;18.75;17.00;;;;;;;;5036245;28;45483;-74
2021/11/29 00:49:58;;;;;;;;;19.25;17.50;;;;;;;;5037393;28;47318;-75
2021/11/29 00:52:23;;;;;;;;;15.25;15.00;;;;;;;;5037383;28;45394;-75
2021/11/29 00:54:49;;;;;;;;;23.50;19.50;;;;;;;;5036761;28;45422;-75
2021/11/29 00:57:15;;;;;;;;;19.00;19.00;;;;;;;;5037711;28;45338;-76
2021/11/29 00:59:46;;;;;;;;;24.00;20.50;;;;;;;;5036626;28;47294;-74
2021/11/29 01:02:11;;;;;;;;;16.00;15.75;;;;;;;;5036409;28;45344;-73
2021/11/29 01:04:36;;;;;;;;;22.00;19.50;;;;;;;;5036679;28;45379;-74
2021/11/29 01:07:01;;;;;;;;;19.75;16.50;;;;;;;;5036342;28;45510;-75
2021/11/29 01:09:27;;;;;;;;;18.50;17.00;;;;;;;;5036857;28;46082;-75
2021/11/29 01:11:52;;;;;;;;;20.25;18.50;;;;;;;;5036618;28;45483;-75
2021/11/29 01:14:17;;;;;;;;;18.00;16.75;;;;;;;;5036634;28;45311;-75
2021/11/29 01:16:42;;;;;;;;;23.50;20.25;;;;;;;;5034618;28;45396;-75
2021/11/29 01:19:07;;;;;;;;;18.00;18.00;;;;;;;;5035963;28;47597;-75
2021/11/29 01:21:33;;;;;;;;;20.00;17.25;;;;;;;;5036359;28;45365;-74
2021/11/29 01:23:58;;;;;;;;;19.00;16.50;;;;;;;;5037143;28;45306;-75
2021/11/29 01:26:23;;;;;;;;;19.00;16.50;;;;;;;;5034816;28;45680;-75
2021/11/29 01:28:48;;;;;;;;;20.75;18.00;;;;;;;;5035974;28;46316;-76
2021/11/29 01:31:14;;;;;;;;;22.25;17.50;;;;;;;;5035885;28;45420;-74
2021/11/29 01:33:39;;;;;;;;;22.00;20.00;;;;;;;;5036479;28;45471;-74
2021/11/29 01:36:04;;;;;;;;;15.75;14.00;;;;;;;;5036725;28;45592;-75
2021/11/29 01:38:29;;;;;;;;;23.00;19.75;;;;;;;;5035964;28;46239;-75
2021/11/29 01:40:55;;;;;;;;;21.75;20.00;;;;;;;;5036123;28;45532;-76
2021/11/29 01:43:20;;;;;;;;;20.50;17.00;;;;;;;;5036196;28;45538;-74
2021/11/29 01:45:48;;;;;;;;;18.25;16.00;;;;;;;;5035450;28;45462;-73
2021/11/29 01:48:14;;;;;;;;;21.00;18.00;;;;;;;;5036152;28;46246;-74
2021/11/29 01:50:41;;;;;;;;;22.25;19.50;;;;;;;;5035614;28;45559;-74
2021/11/29 01:53:06;;;;;;;;;21.00;17.25;;;;;;;;5035742;28;45446;-76
2021/11/29 01:55:32;;;;;;;;;23.50;18.00;;;;;;;;5035870;28;45343;-76
2021/11/29 01:57:58;;;;;;;;;18.25;16.00;;;;;;;;5035814;28;46519;-75
2021/11/29 02:00:30;;;;;;;;;18.50;18.00;;;;;;;;5036010;28;45287;-74
2021/11/29 02:02:56;;;;;;;;;23.50;16.75;;;;;;;;5034723;28;45518;-75
2021/11/29 02:05:22;;;;;;;;;17.25;15.75;;;;;;;;5035386;28;45551;-73
2021/11/29 02:07:48;;;;;;;;;19.75;17.50;;;;;;;;5035310;28;46128;-75
2021/11/29 02:10:15;;;;;;;;;18.00;16.00;;;;;;;;5035719;28;45431;-75
2021/11/29 02:12:40;;;;;;;;;20.00;13.75;;;;;;;;5035712;28;47893;-75
2021/11/29 02:15:06;;;;;;;;;16.50;14.50;;;;;;;;5035905;28;45438;-75
2021/11/29 02:17:31;;;;;;;;;26.25;16.75;;;;;;;;5035279;28;47228;-75
2021/11/29 02:19:56;;;;;;;;;16.00;16.00;;;;;;;;5035401;28;45318;-74
2021/11/29 02:22:22;;;;;;;;;16.00;12.00;;;;;;;;5035830;28;45540;-75
2021/11/29 02:24:47;;;;;;;;;17.50;14.25;;;;;;;;5035513;28;45542;-75
2021/11/29 02:27:12;;;;;;;;;14.50;13.25;;;;;;;;5035959;28;46500;-75
2021/11/29 02:29:39;;;;;;;;;16.50;11.50;;;;;;;;5035075;28;45292;-75
2021/11/29 02:32:06;;;;;;;;;18.25;14.75;;;;;;;;5035193;28;45403;-75
2021/11/29 02:34:31;;;;;;;;;17.00;14.00;;;;;;;;5035401;28;45425;-75
2021/11/29 02:36:58;;;;;;;;;16.50;13.50;;;;;;;;5034742;28;46173;-75
2021/11/29 02:39:23;;;;;;;;;17.75;13.25;;;;;;;;5036100;28;45683;-75
2021/11/29 02:41:49;;;;;;;;;12.50;10.75;;;;;;;;5035580;28;45304;-77
2021/11/29 02:44:15;;;;;;;;;10.00;10.00;;;;;;;;5035289;28;45428;-74
2021/11/29 02:46:42;;;;;;;;;12.50;10.75;;;;;;;;5035292;28;46559;-74
2021/11/29 02:49:08;;;;;;;;;14.25;13.50;;;;;;;;5034904;28;45525;-73
2021/11/29 02:51:35;;;;;;;;;11.25;11.25;;;;;;;;5035290;28;45402;-76
2021/11/29 02:54:03;;;;;;;;;14.00;12.75;;;;;;;;5035507;28;45624;-74
2021/11/29 02:56:28;;;;;;;;;15.75;11.00;;;;;;;;5034524;28;45410;-75
2021/11/29 02:58:54;;;;;;;;;11.50;10.75;;;;;;;;5034585;28;45478;-76
2021/11/29 03:01:19;;;;;;;;;14.50;13.00;;;;;;;;5034971;28;46186;-74
2021/11/29 03:03:49;;;;;;;;;15.75;14.75;;;;;;;;5034953;28;45286;-75
2021/11/29 03:06:15;;;;;;;;;16.00;13.25;;;;;;;;5035246;28;45613;-75
2021/11/29 03:08:40;;;;;;;;;14.25;14.25;;;;;;;;5034653;28;45364;-74
2021/11/29 03:11:05;;;;;;;;;14.25;12.00;;;;;;;;5034539;28;45356;-76
2021/11/29 03:13:31;;;;;;;;;16.25;15.00;;;;;;;;5034414;28;45276;-74
2021/11/29 03:15:56;;;;;;;;;15.50;12.00;;;;;;;;5034509;28;45420;-76
2021/11/29 03:18:28;;;;;;;;;11.50;11.00;;;;;;;;5035326;28;45379;-75
2021/11/29 03:20:54;;;;;;;;;15.00;11.50;;;;;;;;5034616;28;45424;-75
2021/11/29 03:23:19;;;;;;;;;14.25;12.25;;;;;;;;5034500;28;45501;-75
2021/11/29 03:25:44;;;;;;;;;15.25;11.50;;;;;;;;5034134;28;46037;-75
2021/11/29 03:28:12;;;;;;;;;9.50;9.50;;;;;;;;5034215;28;45469;-75
2021/11/29 03:30:37;;;;;;;;;11.25;10.25;;;;;;;;5034689;28;45481;-75
2021/11/29 03:33:02;;;;;;;;;15.00;12.25;;;;;;;;5035071;28;45347;-75
2021/11/29 03:35:27;;;;;;;;;10.75;10.75;;;;;;;;5035959;28;45418;-74
2021/11/29 03:37:53;;;;;;;;;13.50;13.00;;;;;;;;5034452;28;45440;-75
2021/11/29 03:40:18;;;;;;;;;11.00;11.00;;;;;;;;5034580;28;45452;-75
2021/11/29 03:42:43;;;;;;;;;12.50;11.00;;;;;;;;5034315;28;45479;-75
2021/11/29 03:45:08;;;;;;;;;12.50;10.25;;;;;;;;5034868;28;46515;-75
2021/11/29 03:47:33;;;;;;;;;11.25;11.00;;;;;;;;5034268;28;45694;-75
2021/11/29 03:49:59;;;;;;;;;11.50;11.50;;;;;;;;5035778;28;45370;-75
2021/11/29 03:52:24;;;;;;;;;16.00;14.00;;;;;;;;5037811;28;45478;-74
2021/11/29 03:54:51;;;;;;;;;9.75;9.75;;;;;;;;5037403;28;45415;-73
2021/11/29 03:57:16;;;;;;;;;14.25;11.50;;;;;;;;5037949;28;45358;-75
2021/11/29 03:59:41;;;;;;;;;8.25;7.75;;;;;;;;5037657;28;45509;-75
2021/11/29 04:02:06;;;;;;;;;10.00;7.75;;;;;;;;5037757;28;45355;-75
2021/11/29 04:04:32;;;;;;;;;10.25;8.25;;;;;;;;5037606;28;46972;-75
2021/11/29 04:06:57;;;;;;;;;10.75;7.00;;;;;;;;5037837;28;45496;-75
2021/11/29 04:09:22;;;;;;;;;9.00;9.00;;;;;;;;5038272;28;45356;-75
2021/11/29 04:11:47;;;;;;;;;10.00;10.00;;;;;;;;5037032;28;45344;-74
2021/11/29 04:14:12;;;;;;;;;8.50;8.50;;;;;;;;5036958;28;45315;-74
2021/11/29 04:16:38;;;;;;;;;11.75;9.75;;;;;;;;5037236;28;47205;-74
2021/11/29 04:19:03;;;;;;;;;9.75;7.00;;;;;;;;5037060;28;45862;-74
2021/11/29 04:21:28;;;;;;;;;11.50;9.25;;;;;;;;5037286;28;45454;-75
2021/11/29 04:23:54;;;;;;;;;7.25;6.25;;;;;;;;5036119;28;46300;-76
2021/11/29 04:26:19;;;;;;;;;7.25;7.00;;;;;;;;5036305;28;45489;-76
2021/11/29 04:28:45;;;;;;;;;9.25;9.25;;;;;;;;5037135;28;45549;-75
2021/11/29 04:31:10;;;;;;;;;7.25;7.25;;;;;;;;5037401;28;45336;-76
2021/11/29 04:33:36;;;;;;;;;10.00;8.25;;;;;;;;5036985;28;45587;-75
2021/11/29 04:36:01;;;;;;;;;10.25;7.75;;;;;;;;5037457;28;45358;-75
2021/11/29 04:38:27;;;;;;;;;13.00;10.50;;;;;;;;5037211;28;45272;-75
2021/11/29 04:40:52;;;;;;;;;9.75;9.00;;;;;;;;5036380;28;45548;-75
2021/11/29 04:43:17;;;;;;;;;10.75;8.25;;;;;;;;5036278;28;45476;-74
2021/11/29 04:45:43;;;;;;;;;10.25;10.00;;;;;;;;5036371;28;45327;-75
2021/11/29 04:48:08;;;;;;;;;16.25;12.25;;;;;;;;5037179;28;45401;-75
2021/11/29 04:50:33;;;;;;;;;8.75;8.75;;;;;;;;5036268;28;45434;-75
2021/11/29 04:52:59;;;;;;;;;10.00;7.50;;;;;;;;5036622;28;45706;-75
2021/11/29 04:55:24;;;;;;;;;15.00;10.75;;;;;;;;5036458;28;45283;-75
2021/11/29 04:57:49;;;;;;;;;15.50;11.75;;;;;;;;5036861;28;45301;-74
2021/11/29 05:00:18;;;;;;;;;11.00;11.00;;;;;;;;5035819;28;45545;-76
2021/11/29 05:02:44;;;;;;;;;17.25;14.50;;;;;;;;5036566;28;46240;-74
2021/11/29 05:05:09;;;;;;;;;11.50;11.50;;;;;;;;5036281;28;45499;-74
2021/11/29 05:07:35;;;;;;;;;11.00;11.00;;;;;;;;5036381;28;47366;-76
2021/11/29 05:10:00;;;;;;;;;10.00;10.00;;;;;;;;5036197;28;45752;-75
2021/11/29 05:12:26;;;;;;;;;15.25;11.00;;;;;;;;5035924;28;47485;-75
2021/11/29 05:14:52;;;;;;;;;13.25;13.00;;;;;;;;5035982;28;45375;-76
2021/11/29 05:17:18;;;;;;;;;15.50;12.25;;;;;;;;5036014;28;45356;-75
2021/11/29 05:19:43;;;;;;;;;11.25;11.00;;;;;;;;5036023;28;45491;-76
2021/11/29 05:22:08;;;;;;;;;16.75;16.75;;;;;;;;5035090;28;46047;-76
2021/11/29 05:24:34;;;;;;;;;14.00;11.25;;;;;;;;5034952;28;45362;-75
2021/11/29 05:26:59;;;;;;;;;19.75;15.25;;;;;;;;5035777;28;45439;-75
2021/11/29 05:29:24;;;;;;;;;8.25;7.00;;;;;;;;5035245;28;45293;-76
2021/11/29 05:31:50;;;;;;;;;12.50;10.00;;;;;;;;5034836;28;46255;-76
2021/11/29 05:34:16;;;;;;;;;11.00;9.50;;;;;;;;5035136;28;45303;-76
2021/11/29 05:36:41;;;;;;;;;8.25;8.25;;;;;;;;5035075;28;45580;-74
2021/11/29 05:39:07;;;;;;;;;12.00;7.75;;;;;;;;5035772;28;45405;-75
2021/11/29 05:41:32;;;;;;;;;10.00;6.50;;;;;;;;5034923;28;46220;-75
2021/11/29 05:43:57;;;;;;;;;9.75;6.00;;;;;;;;5034395;28;45363;-75
2021/11/29 05:46:22;;;;;;;;;14.25;12.50;;;;;;;;5035292;28;45483;-75
2021/11/29 05:48:49;;;;;;;;;13.50;10.00;;;;;;;;5035149;28;45567;-75
2021/11/29 05:51:14;;;;;;;;;6.75;6.75;;;;;;;;5035820;28;45367;-75
2021/11/29 05:53:39;;;;;;;;;7.25;7.25;;;;;;;;5035174;28;45295;-76
2021/11/29 05:56:04;;;;;;;;;8.25;7.00;;;;;;;;5035022;28;45494;-75
2021/11/29 05:58:30;;;;;;;;;13.00;10.50;;;;;;;;5034648;28;45539;-75
2021/11/29 06:00:55;;;;;;;;;10.25;5.25;;;;;;;;5034677;28;46085;-76
2021/11/29 06:03:20;;;;;;;;;8.25;6.75;;;;;;;;5035449;28;45465;-75
2021/11/29 06:05:46;;;;;;;;;8.00;7.00;;;;;;;;5034983;28;45393;-75
2021/11/29 06:08:11;;;;;;;;;15.75;12.50;;;;;;;;5034656;28;45287;-77
2021/11/29 06:10:36;;;;;;;;;15.50;12.25;;;;;;;;5034652;28;45514;-75
2021/11/29 06:13:01;;;;;;;;;14.00;12.50;;;;;;;;5034302;28;45308;-76
2021/11/29 06:15:26;;;;;;;;;10.50;9.25;;;;;;;;5035245;28;45486;-74
2021/11/29 06:17:52;;;;;;;;;10.00;8.25;;;;;;;;5034599;28;45496;-76
2021/11/29 06:20:21;;;;;;;;;24.00;15.00;;;;;;;;5033947;28;46921;-76
2021/11/29 06:22:51;;;;;;;;;10.50;10.50;;;;;;;;5033653;28;45279;-74
2021/11/29 06:25:17;;;;;;;;;18.00;15.50;;;;;;;;5034022;28;45511;-73
2021/11/29 06:27:42;;;;;;;;;12.25;11.50;;;;;;;;5034285;28;45383;-75
2021/11/29 06:30:07;;;;;;;;;12.00;9.75;;;;;;;;5034826;28;45334;-76
2021/11/29 06:32:33;;;;;;;;;14.50;11.25;;;;;;;;5033030;28;45401;-75
2021/11/29 06:34:58;;;;;;;;;12.00;12.00;;;;;;;;5033036;28;45358;-73
2021/11/29 06:37:26;;;;;;;;;11.75;6.75;;;;;;;;5033896;28;45485;-76
2021/11/29 06:39:52;;;;;;;;;19.75;15.75;;;;;;;;5031668;28;48191;-76
2021/11/29 06:42:17;;;;;;;;;6.25;5.25;;;;;;;;5033140;28;46190;-73
2021/11/29 06:44:42;;;;;;;;;7.00;6.00;;;;;;;;5033686;28;45339;-76
2021/11/29 06:47:08;;;;;;;;;15.50;12.25;;;;;;;;5033394;28;45444;-74
2021/11/29 06:49:33;;;;;;;;;9.50;9.50;;;;;;;;5032947;28;45533;-76
2021/11/29 06:52:02;;;;;;;;;9.50;7.00;;;;;;;;5034277;28;45515;-77
2021/11/29 06:54:28;;;;;;;;;11.00;10.00;;;;;;;;5034202;28;45440;-76
2021/11/29 06:56:53;;;;;;;;;8.00;8.00;;;;;;;;5033251;28;45516;-76
2021/11/29 06:59:19;;;;;;;;;7.25;7.25;;;;;;;;5033003;28;46239;-77
2021/11/29 07:01:45;;;;;;;;;13.50;11.00;;;;;;;;5033060;28;45281;-76
2021/11/29 07:04:10;;;;;;;;;10.00;9.00;;;;;;;;5033111;28;45407;-76
2021/11/29 07:06:35;;;;;;;;;14.50;13.00;;;;;;;;5033773;28;45306;-76
2021/11/29 07:09:01;;;;;;;;;17.75;17.00;;;;;;;;5033970;28;45566;-76
2021/11/29 07:11:26;;;;;;;;;15.75;15.75;;;;;;;;5033617;28;45246;-76
2021/11/29 07:13:51;;;;;;;;;15.00;12.75;;;;;;;;5031728;28;45434;-76
2021/11/29 07:16:16;;;;;;;;;9.75;7.00;;;;;;;;5033658;28;45277;-76
2021/11/29 07:18:42;;;;;;;;;19.25;16.00;;;;;;;;5033476;28;45696;-77
2021/11/29 07:21:09;;;;;;;;;20.00;15.00;;;;;;;;5033985;28;45501;-76
2021/11/29 07:23:34;;;;;;;;;18.75;14.25;;;;;;;;5032349;28;45398;-77
2021/11/29 07:25:59;;;;;;;;;18.00;16.00;;;;;;;;5032182;28;45514;-76
2021/11/29 07:28:25;;;;;;;;;13.75;13.75;;;;;;;;5032248;28;46456;-77
2021/11/29 07:30:50;;;;;;;;;30.50;30.50;;;;;;;;5032602;28;45358;-76
2021/11/29 07:33:15;;;;;;;;;18.00;16.75;;;;;;;;5033073;28;45498;-77
2021/11/29 07:35:41;;;;;;;;;16.25;14.00;;;;;;;;5033025;28;45574;-77
2021/11/29 07:38:06;;;;;;;;;16.00;14.75;;;;;;;;5032753;28;46055;-77
2021/11/29 07:40:32;;;;;;;;;19.75;15.50;;;;;;;;5030405;28;45509;-75
2021/11/29 07:43:02;;;;;;;;;17.50;16.00;;;;;;;;5031868;28;45461;-75
2021/11/29 07:45:28;;;;;;;;;14.75;14.75;;;;;;;;5032268;28;45449;-78
2021/11/29 07:47:53;;;;;;;;;17.75;15.25;;;;;;;;5031926;28;47161;-77
2021/11/29 07:50:19;;;;;;;;;14.25;12.75;;;;;;;;5032325;28;45522;-77
2021/11/29 07:52:44;;;;;;;;;10.75;10.75;;;;;;;;5031990;28;45533;-75
2021/11/29 07:55:15;;;;;;;;;17.25;16.00;;;;;;;;5032095;28;45565;-76
2021/11/29 07:57:41;;;;;;;;;13.50;12.25;;;;;;;;5032126;28;45469;-76
2021/11/29 08:00:09;;;;;;;;;17.75;12.75;;;;;;;;5032905;28;45862;-78
2021/11/29 08:02:34;;;;;;;;;19.25;16.00;;;;;;;;5029419;28;45481;-75
2021/11/29 08:04:59;;;;;;;;;11.25;10.00;;;;;;;;5032156;28;45415;-77
2021/11/29 08:07:25;;;;;;;;;13.75;12.75;;;;;;;;5032076;28;45842;-77
2021/11/29 08:09:51;;;;;;;;;17.00;13.00;;;;;;;;5032262;28;45517;-76
2021/11/29 08:12:16;;;;;;;;;19.25;14.75;;;;;;;;5033429;28;45466;-76
2021/11/29 08:14:41;;;;;;;;;16.00;13.75;;;;;;;;5032338;28;45654;-77
2021/11/29 08:17:06;;;;;;;;;14.25;14.25;;;;;;;;5030265;28;47608;-76
2021/11/29 08:19:32;;;;;;;;;11.00;8.00;;;;;;;;5031811;28;45420;-74
2021/11/29 08:21:57;;;;;;;;;13.75;10.50;;;;;;;;5032483;28;45511;-77
2021/11/29 08:24:22;;;;;;;;;14.00;12.00;;;;;;;;5034160;28;45511;-75
2021/11/29 08:26:47;;;;;;;;;13.75;13.25;;;;;;;;5032697;28;47672;-76
2021/11/29 08:29:13;;;;;;;;;13.50;10.00;;;;;;;;5033106;28;45488;-77
2021/11/29 08:31:38;;;;;;;;;14.25;9.75;;;;;;;;5032146;28;45456;-77
2021/11/29 08:34:03;;;;;;;;;22.25;17.75;;;;;;;;5032211;28;45519;-74
2021/11/29 08:36:29;;;;;;;;;16.50;14.75;;;;;;;;5034201;28;46140;-77
2021/11/29 08:38:54;;;;;;;;;19.75;17.50;;;;;;;;5035910;28;45466;-75
2021/11/29 08:41:21;;;;;;;;;14.75;12.50;;;;;;;;5034936;28;45555;-74
2021/11/29 08:43:46;;;;;;;;;17.50;14.25;;;;;;;;5034643;28;45333;-75
2021/11/29 08:46:12;;;;;;;;;21.00;17.50;;;;;;;;5033922;28;46535;-77
2021/11/29 08:48:37;;;;;;;;;19.50;18.00;;;;;;;;5034688;28;45312;-77
2021/11/29 08:51:02;;;;;;;;;15.75;14.00;;;;;;;;5035437;28;45548;-76
2021/11/29 08:53:28;;;;;;;;;12.25;11.75;;;;;;;;5035077;28;45359;-77
2021/11/29 08:55:54;;;;;;;;;18.75;16.25;;;;;;;;5034469;28;47042;-76
2021/11/29 08:58:20;;;;;;;;;19.75;16.75;;;;;;;;5035002;28;45424;-79
2021/11/29 09:00:46;;;;;;;;;14.00;13.00;;;;;;;;5035467;28;45597;-79
2021/11/29 09:03:11;;;;;;;;;15.75;14.25;;;;;;;;5036050;28;45493;-75
2021/11/29 09:05:40;;;;;;;;;15.25;12.75;;;;;;;;5034866;28;46087;-75
2021/11/29 09:08:06;;;;;;;;;14.00;14.00;;;;;;;;5035309;28;45374;-76
2021/11/29 09:10:32;;;;;;;;;17.50;15.25;;;;;;;;5035462;28;45368;-75
2021/11/29 09:12:57;;;;;;;;;17.75;17.00;;;;;;;;5035740;28;45480;-75
2021/11/29 09:15:23;;;;;;;;;19.50;15.25;;;;;;;;5036569;28;45323;-75
2021/11/29 09:17:48;;;;;;;;;21.00;17.00;;;;;;;;5035488;28;45371;-75
2021/11/29 09:20:15;;;;;;;;;13.00;13.00;;;;;;;;5034681;28;45455;-73
2021/11/29 09:22:41;;;;;;;;;15.50;14.25;;;;;;;;5034515;28;45471;-73
2021/11/29 09:25:07;;;;;;;;;20.25;18.75;;;;;;;;5034843;28;46724;-74
2021/11/29 09:27:32;;;;;;;;;15.50;13.75;;;;;;;;5034799;28;45379;-74
2021/11/29 09:29:58;;;;;;;;;17.00;15.75;;;;;;;;5034821;28;45542;-74
2021/11/29 09:32:24;;;;;;;;;21.00;17.00;;;;;;;;5034421;28;45380;-75
2021/11/29 09:34:49;;;;;;;;;20.00;15.00;;;;;;;;5033966;28;45464;-75
2021/11/29 09:37:15;;;;;;;;;14.75;14.25;;;;;;;;5033994;28;45387;-74
2021/11/29 09:39:40;;;;;;;;;14.75;13.25;;;;;;;;5034488;28;45317;-75
2021/11/29 09:42:06;;;;;;;;;17.25;16.50;;;;;;;;5033233;28;45844;-75
2021/11/29 09:44:31;;;;;;;;;16.75;15.00;;;;;;;;5034319;28;46491;-74
2021/11/29 09:46:57;;;;;;;;;16.00;15.25;;;;;;;;5032929;28;45510;-75
2021/11/29 09:49:23;;;;;;;;;19.50;18.75;;;;;;;;5034748;28;45533;-75
2021/11/29 09:51:49;;;;;;;;;16.00;15.25;;;;;;;;5034654;28;46061;-74
2021/11/29 09:54:14;;;;;;;;;15.00;14.00;;;;;;;;5034804;28;45304;-76
2021/11/29 09:56:40;;;;;;;;;17.50;16.25;;;;;;;;5034254;28;45585;-75
2021/11/29 09:59:05;;;;;;;;;17.75;17.75;;;;;;;;5033947;28;45472;-75
2021/11/29 10:01:31;;;;;;;;;19.25;17.00;;;;;;;;5034353;28;45294;-75
2021/11/29 10:03:56;;;;;;;;;22.00;18.50;;;;;;;;5033493;28;47281;-75
2021/11/29 10:06:22;;;;;;;;;22.50;19.75;;;;;;;;5034020;28;45389;-75
2021/11/29 10:08:48;;;;;;;;;19.00;17.75;;;;;;;;5034720;28;45390;-75
2021/11/29 10:11:15;;;;;;;;;21.00;18.75;;;;;;;;5033404;28;45340;-76
2021/11/29 10:13:46;;;;;;;;;18.50;17.25;;;;;;;;5032136;28;48293;-75
2021/11/29 10:16:12;;;;;;;;;20.00;13.25;;;;;;;;5033761;28;45468;-75
2021/11/29 10:18:38;;;;;;;;;19.50;17.00;;;;;;;;5034253;28;45344;-75
2021/11/29 10:21:08;;;;;;;;;15.50;12.75;;;;;;;;5034793;28;45578;-74
2021/11/29 10:23:33;;;;;;;;;24.50;18.25;;;;;;;;5033921;28;45328;-76
2021/11/29 10:25:59;;;;;;;;;18.75;15.50;;;;;;;;5033958;28;45559;-75
2021/11/29 10:28:28;;;;;;;;;15.75;15.75;;;;;;;;5033559;28;45409;-73
2021/11/29 10:31:23;;;;;;;;;16.75;16.75;;;;;;;;5034830;28;45313;-76
2021/11/29 10:33:48;;;;;;;;;13.75;12.25;;;;;;;;5019887;28;47188;-74
2021/11/29 10:36:14;;;;;;;;;16.25;15.75;;;;;;;;5034530;28;45338;-75
2021/11/29 10:38:40;;;;;;;;;12.50;11.50;;;;;;;;5034184;28;45398;-74
2021/11/29 10:41:06;;;;;;;;;14.25;13.25;;;;;;;;5034433;28;45578;-75
2021/11/29 10:43:41;;;;;;;;;15.00;15.00;;;;;;;;5033940;28;45980;-75
2021/11/29 10:46:36;;;;;;;;;19.50;15.50;;;;;;;;5033933;28;45414;-75
2021/11/29 10:49:08;;;;;;;;;13.00;13.00;;;;;;;;4956973;28;46653;-75
2021/11/29 10:51:34;;;;;;;;;19.25;18.00;;;;;;;;4972250;28;45339;-74
2021/11/29 10:54:04;;;;;;;;;19.00;17.50;;;;;;;;4960280;28;45381;-74
2021/11/29 10:56:30;;;;;;;;;14.00;13.50;;;;;;;;4968892;28;45335;-76
2021/11/29 10:58:57;;;;;;;;;17.25;13.25;;;;;;;;4971314;28;45463;-76
2021/11/29 11:01:46;;;;;;;;;12.25;12.25;;;;;;;;4971947;28;45456;-75
2021/11/29 11:04:13;;;;;;;;;12.00;8.75;;;;;;;;4952894;28;46662;-75
2021/11/29 11:06:40;;;;;;;;;12.50;11.25;;;;;;;;4971313;28;45598;-75
2021/11/29 11:09:10;;;;;;;;;11.25;11.25;;;;;;;;4972237;28;45440;-75
2021/11/29 11:11:41;;;;;;;;;14.00;12.50;;;;;;;;4970842;28;45511;-76
2021/11/29 11:14:29;;;;;;;;;12.25;8.50;;;;;;;;4950173;28;47344;-75
2021/11/29 11:17:04;;;;;;;;;5.75;3.50;;;;;;;;4956400;28;45373;-75
2021/11/29 11:19:30;;;;;;;;;12.75;10.50;;;;;;;;4971882;28;45466;-76
2021/11/29 11:21:59;;;;;;;;;11.00;10.00;;;;;;;;4955694;28;45261;-75
2021/11/29 11:24:25;;;;;;;;;9.75;7.00;;;;;;;;4968084;28;45438;-76
2021/11/29 11:26:50;;;;;;;;;11.00;9.50;;;;;;;;4992616;28;45600;-74
2021/11/29 11:29:30;;;;;;;;;8.00;8.00;;;;;;;;4993128;28;45548;-75
2021/11/29 11:32:08;;;;;;;;;12.00;9.75;;;;;;;;4993337;28;45502;-76
2021/11/29 11:34:34;;;;;;;;;6.25;3.25;;;;;;;;4993264;28;46158;-75
2021/11/29 11:36:59;;;;;;;;;9.00;9.00;;;;;;;;4991782;28;45569;-76
2021/11/29 11:39:24;;;;;;;;;8.00;8.00;;;;;;;;4993390;28;45763;-76
2021/11/29 11:41:50;;;;;;;;;8.75;6.25;;;;;;;;4992670;28;45450;-75
2021/11/29 11:44:15;;;;;;;;;9.00;8.50;;;;;;;;4992687;28;46139;-74
2021/11/29 11:46:41;;;;;;;;;8.75;8.25;;;;;;;;4992715;28;45593;-76
2021/11/29 11:49:06;;;;;;;;;7.50;6.50;;;;;;;;5014726;28;45516;-76
2021/11/29 11:51:34;;;;;;;;;5.50;5.50;;;;;;;;5032626;28;45436;-76
2021/11/29 11:53:59;;;;;;;;;6.00;5.75;;;;;;;;5031816;28;46074;-75
2021/11/29 11:56:26;;;;;;;;;1.50;1.50;;;;;;;;5032423;28;45395;-76
2021/11/29 11:58:54;;;;;;;;;6.75;6.50;;;;;;;;5032393;28;45262;-75
2021/11/29 12:01:23;;;;;;;;;6.25;6.25;;;;;;;;5033023;28;45396;-76
2021/11/29 12:03:50;;;;;;;;;4.00;4.00;;;;;;;;5032509;28;45855;-75
2021/11/29 12:06:18;;;;;;;;;7.50;5.50;;;;;;;;5033421;28;45279;-75
2021/11/29 12:08:56;;;;;;;;;5.00;5.00;;;;;;;;5032647;28;45296;-77
2021/11/29 12:11:29;;;;;;;;;9.50;6.00;;;;;;;;5034256;28;45415;-75
2021/11/29 12:14:06;;;;;;;;;7.50;6.00;;;;;;;;5035204;28;47230;-76
2021/11/29 12:16:33;;;;;;;;;7.50;7.00;;;;;;;;5034887;28;45622;-75
2021/11/29 12:18:59;;;;;;;;;8.50;6.00;;;;;;;;5036108;28;45525;-75
2021/11/29 12:21:33;;;;;;;;;7.50;7.25;;;;;;;;5036883;28;45400;-75
2021/11/29 12:23:59;;;;;;;;;10.00;8.50;;;;;;;;5035175;28;48909;-75
2021/11/29 12:26:42;;;;;;;;;3.25;3.25;;;;;;;;5037854;28;45292;-76
2021/11/29 12:29:27;;;;;;;;;5.00;5.00;;;;;;;;5038682;28;45447;-75
2021/11/29 12:32:02;;;;;;;;;5.75;3.75;;;;;;;;5039400;28;45396;-77
2021/11/29 12:37:17;;;;;;;;;11.75;7.75;;;;;;;;5026786;28;45488;-76
2021/11/29 12:39:45;;;;;;;;;8.00;6.00;;;;;;;;5040755;28;45275;-75
2021/11/29 12:42:33;;;;;;;;;5.50;4.00;;;;;;;;5040960;28;45465;-76
2021/11/29 12:45:00;;;;;;;;;7.75;6.25;;;;;;;;5039315;28;45527;-75
2021/11/29 12:47:27;;;;;;;;;5.25;5.25;;;;;;;;5036544;28;45287;-76
2021/11/29 12:49:53;;;;;;;;;10.50;9.25;;;;;;;;5036498;28;45215;-75
2021/11/29 12:52:35;;;;;;;;;6.00;6.00;;;;;;;;5036505;28;45342;-75
2021/11/29 12:55:01;;;;;;;;;9.50;6.25;;;;;;;;5019406;28;46457;-76
2021/11/29 12:57:29;;;;;;;;;7.75;7.75;;;;;;;;5035157;28;45332;-75
2021/11/29 13:00:00;;;;;;;;;10.25;10.25;;;;;;;;5034864;28;45453;-75
2021/11/29 13:02:38;;;;;;;;;6.75;5.75;;;;;;;;5034489;28;45376;-75
2021/11/29 13:05:22;;;;;;;;;10.50;10.50;;;;;;;;5034217;28;45542;-76
2021/11/29 13:08:17;;;;;;;;;7.00;6.00;;;;;;;;5033070;28;45432;-76
2021/11/29 13:10:51;;;;;;;;;7.75;7.00;;;;;;;;4972555;28;45585;-75
2021/11/29 13:13:25;;;;;;;;;8.50;7.00;;;;;;;;4973464;28;45441;-75
2021/11/29 13:15:52;;;;;;;;;8.25;5.50;;;;;;;;4973221;28;47072;-75
2021/11/29 13:18:36;;;;;;;;;8.25;7.25;;;;;;;;4959240;28;45534;-73
2021/11/29 13:21:02;;;;;;;;;8.00;8.00;;;;;;;;4961145;28;45596;-75
2021/11/29 13:23:27;;;;;;;;;4.50;3.75;;;;;;;;4961867;28;45733;-76
2021/11/29 13:25:59;;;;;;;;;6.75;5.75;;;;;;;;4964900;28;46741;-74
2021/11/29 13:28:24;;;;;;;;;5.50;5.00;;;;;;;;4973102;28;45415;-75
2021/11/29 13:30:52;;;;;;;;;10.50;5.50;;;;;;;;4973023;28;45493;-75
2021/11/29 13:33:17;;;;;;;;;9.00;8.25;;;;;;;;4973648;28;45496;-74
2021/11/29 13:35:45;;;;;;;;;12.50;11.25;;;;;;;;4963019;28;47048;-75
2021/11/29 13:38:10;;;;;;;;;7.50;4.00;;;;;;;;4951700;28;45655;-75
2021/11/29 13:40:35;;;;;;;;;6.25;4.25;;;;;;;;4973863;28;45438;-74
2021/11/29 13:43:02;;;;;;;;;9.25;6.75;;;;;;;;4974220;28;45402;-74
2021/11/29 13:45:29;;;;;;;;;6.75;6.75;;;;;;;;4958621;28;46443;-76
2021/11/29 13:48:04;;;;;;;;;8.00;7.00;;;;;;;;5013070;28;45347;-74
2021/11/29 13:50:30;;;;;;;;;8.00;8.00;;;;;;;;5033467;28;45303;-75
2021/11/29 13:53:00;;;;;;;;;6.00;6.00;;;;;;;;5034266;28;45315;-75
2021/11/29 13:55:31;;;;;;;;;7.00;5.75;;;;;;;;5034233;28;45479;-74
2021/11/29 13:58:04;;;;;;;;;7.00;5.50;;;;;;;;5019518;28;45277;-75
2021/11/29 14:00:31;;;;;;;;;6.00;4.75;;;;;;;;5026899;28;45308;-74
2021/11/29 14:03:02;;;;;;;;;3.25;3.25;;;;;;;;5034646;28;45691;-75
2021/11/29 14:05:31;;;;;;;;;3.50;3.50;;;;;;;;5033663;28;45527;-75
2021/11/29 14:08:03;;;;;;;;;5.00;4.00;;;;;;;;5034029;28;45499;-74
2021/11/29 14:10:44;;;;;;;;;4.25;2.00;;;;;;;;5034203;28;45424;-75
2021/11/29 14:13:12;;;;;;;;;3.50;2.75;;;;;;;;5019747;28;45412;-75
2021/11/29 14:15:58;;;;;;;;;6.00;5.50;;;;;;;;5033898;28;46355;-75
2021/11/29 14:18:32;;;;;;;;;3.50;3.50;;;;;;;;5034192;28;45239;-75
2021/11/29 14:21:00;;;;;;;;;3.25;3.00;;;;;;;;5033583;28;45439;-74
2021/11/29 14:23:35;;;;;;;;;3.25;3.25;;;;;;;;5032793;28;45455;-73
2021/11/29 14:26:01;;;;;;;;;4.00;3.00;;;;;;;;5032999;28;46205;-75